sensor_id;sensor_type;location;lat;lon;timestamp;P1;durP1;ratioP1;P2;durP2;ratioP2
24559;SDS011;12727;49.934;8.656;2023-05-07T00:01:41;2.60;;;1.10;;
24559;SDS011;12727;49.934;8.656;2023-05-07T00:04:07;3.50;;;1.38;;
24559;SDS011;12727;49.934;8.656;2023-05-07T00:06:33;2.42;;;1.23;;
24559;SDS011;12727;49.934;8.656;2023-05-07T00:08:59;2.40;;;1.40;;
24559;SDS011;12727;49.934;8.656;2023-05-07T00:11:25;2.58;;;1.42;;
24559;SDS011;12727;49.934;8.656;2023-05-07T00:13:51;1.92;;;1.52;;
24559;SDS011;12727;49.934;8.656;2023-05-07T00:16:17;2.35;;;1.40;;
24559;SDS011;12727;49.934;8.656;2023-05-07T00:18:43;3.35;;;1.70;;
24559;SDS011;12727;49.934;8.656;2023-05-07T00:21:08;2.40;;;1.48;;
24559;SDS011;12727;49.934;8.656;2023-05-07T00:23:34;3.40;;;1.63;;
24559;SDS011;12727;49.934;8.656;2023-05-07T00:25:59;2.55;;;1.70;;
24559;SDS011;12727;49.934;8.656;2023-05-07T00:28:25;3.22;;;1.73;;
24559;SDS011;12727;49.934;8.656;2023-05-07T00:30:50;3.95;;;1.60;;
24559;SDS011;12727;49.934;8.656;2023-05-07T00:33:16;2.28;;;1.63;;
24559;SDS011;12727;49.934;8.656;2023-05-07T00:35:42;2.95;;;1.70;;
24559;SDS011;12727;49.934;8.656;2023-05-07T00:38:07;2.00;;;1.65;;
24559;SDS011;12727;49.934;8.656;2023-05-07T00:40:33;2.65;;;1.63;;
24559;SDS011;12727;49.934;8.656;2023-05-07T00:42:59;2.08;;;1.60;;
24559;SDS011;12727;49.934;8.656;2023-05-07T00:45:28;2.17;;;1.52;;
24559;SDS011;12727;49.934;8.656;2023-05-07T00:47:54;2.55;;;1.50;;
24559;SDS011;12727;49.934;8.656;2023-05-07T00:50:22;3.28;;;1.83;;
24559;SDS011;12727;49.934;8.656;2023-05-07T00:52:48;2.50;;;1.73;;
24559;SDS011;12727;49.934;8.656;2023-05-07T00:55:14;2.45;;;1.45;;
24559;SDS011;12727;49.934;8.656;2023-05-07T00:57:40;2.95;;;1.65;;
24559;SDS011;12727;49.934;8.656;2023-05-07T01:00:08;2.95;;;1.75;;
24559;SDS011;12727;49.934;8.656;2023-05-07T01:02:35;3.58;;;1.50;;
24559;SDS011;12727;49.934;8.656;2023-05-07T01:05:01;2.60;;;1.60;;
24559;SDS011;12727;49.934;8.656;2023-05-07T01:07:29;4.05;;;1.90;;
24559;SDS011;12727;49.934;8.656;2023-05-07T01:09:55;2.47;;;1.48;;
24559;SDS011;12727;49.934;8.656;2023-05-07T01:12:21;2.80;;;1.80;;
24559;SDS011;12727;49.934;8.656;2023-05-07T01:14:48;3.35;;;1.73;;
24559;SDS011;12727;49.934;8.656;2023-05-07T01:17:15;2.38;;;1.48;;
24559;SDS011;12727;49.934;8.656;2023-05-07T01:19:41;2.63;;;1.67;;
24559;SDS011;12727;49.934;8.656;2023-05-07T01:22:08;1.83;;;1.40;;
24559;SDS011;12727;49.934;8.656;2023-05-07T01:24:36;2.97;;;2.00;;
24559;SDS011;12727;49.934;8.656;2023-05-07T01:27:02;2.25;;;1.58;;
24559;SDS011;12727;49.934;8.656;2023-05-07T01:29:28;2.60;;;1.60;;
24559;SDS011;12727;49.934;8.656;2023-05-07T01:31:54;2.50;;;1.30;;
24559;SDS011;12727;49.934;8.656;2023-05-07T01:34:24;2.45;;;1.48;;
24559;SDS011;12727;49.934;8.656;2023-05-07T01:36:53;1.90;;;1.65;;
24559;SDS011;12727;49.934;8.656;2023-05-07T01:39:20;3.30;;;1.45;;
24559;SDS011;12727;49.934;8.656;2023-05-07T01:41:48;1.85;;;1.27;;
24559;SDS011;12727;49.934;8.656;2023-05-07T01:44:14;2.15;;;1.77;;
24559;SDS011;12727;49.934;8.656;2023-05-07T01:46:41;3.92;;;1.90;;
24559;SDS011;12727;49.934;8.656;2023-05-07T01:49:07;2.38;;;1.55;;
24559;SDS011;12727;49.934;8.656;2023-05-07T01:51:33;2.65;;;1.60;;
24559;SDS011;12727;49.934;8.656;2023-05-07T01:53:59;3.25;;;1.67;;
24559;SDS011;12727;49.934;8.656;2023-05-07T01:56:25;2.83;;;1.83;;
24559;SDS011;12727;49.934;8.656;2023-05-07T01:58:50;2.58;;;1.80;;
24559;SDS011;12727;49.934;8.656;2023-05-07T02:01:17;2.83;;;1.75;;
24559;SDS011;12727;49.934;8.656;2023-05-07T02:03:43;2.97;;;1.50;;
24559;SDS011;12727;49.934;8.656;2023-05-07T02:06:09;2.95;;;1.70;;
24559;SDS011;12727;49.934;8.656;2023-05-07T02:08:34;2.80;;;1.60;;
24559;SDS011;12727;49.934;8.656;2023-05-07T02:11:00;2.90;;;1.70;;
24559;SDS011;12727;49.934;8.656;2023-05-07T02:13:29;2.13;;;1.90;;
24559;SDS011;12727;49.934;8.656;2023-05-07T02:15:57;3.80;;;2.00;;
24559;SDS011;12727;49.934;8.656;2023-05-07T02:18:23;3.22;;;2.17;;
24559;SDS011;12727;49.934;8.656;2023-05-07T02:20:48;3.38;;;1.80;;
24559;SDS011;12727;49.934;8.656;2023-05-07T02:23:14;2.00;;;1.80;;
24559;SDS011;12727;49.934;8.656;2023-05-07T02:25:39;4.28;;;2.22;;
24559;SDS011;12727;49.934;8.656;2023-05-07T02:28:05;2.42;;;2.15;;
24559;SDS011;12727;49.934;8.656;2023-05-07T02:30:31;3.20;;;2.30;;
24559;SDS011;12727;49.934;8.656;2023-05-07T02:32:57;3.08;;;2.10;;
24559;SDS011;12727;49.934;8.656;2023-05-07T02:35:23;3.08;;;2.38;;
24559;SDS011;12727;49.934;8.656;2023-05-07T02:37:50;3.10;;;2.28;;
24559;SDS011;12727;49.934;8.656;2023-05-07T02:40:15;3.60;;;2.40;;
24559;SDS011;12727;49.934;8.656;2023-05-07T02:42:41;2.63;;;1.98;;
24559;SDS011;12727;49.934;8.656;2023-05-07T02:45:06;3.03;;;2.28;;
24559;SDS011;12727;49.934;8.656;2023-05-07T02:47:32;4.72;;;2.50;;
24559;SDS011;12727;49.934;8.656;2023-05-07T02:49:58;6.05;;;2.70;;
24559;SDS011;12727;49.934;8.656;2023-05-07T02:52:23;4.90;;;2.38;;
24559;SDS011;12727;49.934;8.656;2023-05-07T02:54:49;3.35;;;2.50;;
24559;SDS011;12727;49.934;8.656;2023-05-07T02:57:15;3.75;;;2.65;;
24559;SDS011;12727;49.934;8.656;2023-05-07T02:59:41;3.58;;;2.45;;
24559;SDS011;12727;49.934;8.656;2023-05-07T03:02:07;3.85;;;2.10;;
24559;SDS011;12727;49.934;8.656;2023-05-07T03:04:32;4.00;;;2.55;;
24559;SDS011;12727;49.934;8.656;2023-05-07T03:06:58;4.35;;;2.88;;
24559;SDS011;12727;49.934;8.656;2023-05-07T03:09:24;3.13;;;2.55;;
24559;SDS011;12727;49.934;8.656;2023-05-07T03:11:49;4.63;;;2.85;;
24559;SDS011;12727;49.934;8.656;2023-05-07T03:14:15;5.57;;;2.90;;
24559;SDS011;12727;49.934;8.656;2023-05-07T03:16:40;4.85;;;3.15;;
24559;SDS011;12727;49.934;8.656;2023-05-07T03:19:06;4.13;;;3.00;;
24559;SDS011;12727;49.934;8.656;2023-05-07T03:21:31;3.25;;;2.58;;
24559;SDS011;12727;49.934;8.656;2023-05-07T03:23:58;3.55;;;2.50;;
24559;SDS011;12727;49.934;8.656;2023-05-07T03:26:24;3.08;;;2.50;;
24559;SDS011;12727;49.934;8.656;2023-05-07T03:28:50;3.25;;;2.50;;
24559;SDS011;12727;49.934;8.656;2023-05-07T03:31:16;5.10;;;2.60;;
24559;SDS011;12727;49.934;8.656;2023-05-07T03:33:51;3.88;;;2.72;;
24559;SDS011;12727;49.934;8.656;2023-05-07T03:36:17;4.47;;;2.83;;
24559;SDS011;12727;49.934;8.656;2023-05-07T03:38:42;3.15;;;2.78;;
24559;SDS011;12727;49.934;8.656;2023-05-07T03:41:08;3.20;;;2.55;;
24559;SDS011;12727;49.934;8.656;2023-05-07T03:43:34;5.20;;;2.67;;
24559;SDS011;12727;49.934;8.656;2023-05-07T03:45:59;5.13;;;3.10;;
24559;SDS011;12727;49.934;8.656;2023-05-07T03:48:25;3.85;;;3.15;;
24559;SDS011;12727;49.934;8.656;2023-05-07T03:50:50;3.00;;;2.70;;
24559;SDS011;12727;49.934;8.656;2023-05-07T03:53:16;3.10;;;2.63;;
24559;SDS011;12727;49.934;8.656;2023-05-07T03:55:42;3.35;;;2.70;;
24559;SDS011;12727;49.934;8.656;2023-05-07T03:58:07;4.32;;;2.72;;
24559;SDS011;12727;49.934;8.656;2023-05-07T04:00:33;5.72;;;2.83;;
24559;SDS011;12727;49.934;8.656;2023-05-07T04:03:03;3.67;;;2.50;;
24559;SDS011;12727;49.934;8.656;2023-05-07T04:05:29;3.38;;;2.40;;
24559;SDS011;12727;49.934;8.656;2023-05-07T04:07:55;6.15;;;2.78;;
24559;SDS011;12727;49.934;8.656;2023-05-07T04:10:22;2.88;;;2.30;;
24559;SDS011;12727;49.934;8.656;2023-05-07T04:12:48;4.25;;;2.30;;
24559;SDS011;12727;49.934;8.656;2023-05-07T04:15:13;3.17;;;2.17;;
24559;SDS011;12727;49.934;8.656;2023-05-07T04:17:39;3.45;;;2.10;;
24559;SDS011;12727;49.934;8.656;2023-05-07T04:20:06;4.45;;;2.38;;
24559;SDS011;12727;49.934;8.656;2023-05-07T04:22:35;3.65;;;2.25;;
24559;SDS011;12727;49.934;8.656;2023-05-07T04:25:01;4.35;;;2.25;;
24559;SDS011;12727;49.934;8.656;2023-05-07T04:27:27;2.60;;;2.08;;
24559;SDS011;12727;49.934;8.656;2023-05-07T04:29:53;2.90;;;2.33;;
24559;SDS011;12727;49.934;8.656;2023-05-07T04:32:21;3.58;;;2.30;;
24559;SDS011;12727;49.934;8.656;2023-05-07T04:34:47;2.42;;;2.10;;
24559;SDS011;12727;49.934;8.656;2023-05-07T04:37:12;3.22;;;2.58;;
24559;SDS011;12727;49.934;8.656;2023-05-07T04:39:38;3.00;;;2.20;;
24559;SDS011;12727;49.934;8.656;2023-05-07T04:42:03;3.08;;;2.60;;
24559;SDS011;12727;49.934;8.656;2023-05-07T04:44:30;3.40;;;2.38;;
24559;SDS011;12727;49.934;8.656;2023-05-07T04:46:56;4.60;;;2.47;;
24559;SDS011;12727;49.934;8.656;2023-05-07T04:49:22;4.25;;;2.20;;
24559;SDS011;12727;49.934;8.656;2023-05-07T04:51:47;2.55;;;2.17;;
24559;SDS011;12727;49.934;8.656;2023-05-07T04:54:13;3.75;;;2.40;;
24559;SDS011;12727;49.934;8.656;2023-05-07T04:56:39;2.20;;;1.98;;
24559;SDS011;12727;49.934;8.656;2023-05-07T04:59:04;4.40;;;2.35;;
24559;SDS011;12727;49.934;8.656;2023-05-07T05:01:30;5.53;;;2.40;;
24559;SDS011;12727;49.934;8.656;2023-05-07T05:03:56;3.95;;;2.30;;
24559;SDS011;12727;49.934;8.656;2023-05-07T05:06:21;2.53;;;2.33;;
24559;SDS011;12727;49.934;8.656;2023-05-07T05:08:47;4.78;;;2.22;;
24559;SDS011;12727;49.934;8.656;2023-05-07T05:11:12;3.30;;;2.42;;
24559;SDS011;12727;49.934;8.656;2023-05-07T05:13:38;2.80;;;2.20;;
24559;SDS011;12727;49.934;8.656;2023-05-07T05:16:04;2.60;;;2.20;;
24559;SDS011;12727;49.934;8.656;2023-05-07T05:18:30;2.88;;;2.38;;
24559;SDS011;12727;49.934;8.656;2023-05-07T05:20:57;2.53;;;1.80;;
24559;SDS011;12727;49.934;8.656;2023-05-07T05:23:23;2.45;;;1.98;;
24559;SDS011;12727;49.934;8.656;2023-05-07T05:25:48;2.42;;;1.73;;
24559;SDS011;12727;49.934;8.656;2023-05-07T05:28:15;3.88;;;1.80;;
24559;SDS011;12727;49.934;8.656;2023-05-07T05:30:40;3.08;;;1.70;;
24559;SDS011;12727;49.934;8.656;2023-05-07T05:33:06;5.63;;;2.20;;
24559;SDS011;12727;49.934;8.656;2023-05-07T05:35:31;3.15;;;1.98;;
24559;SDS011;12727;49.934;8.656;2023-05-07T05:37:57;2.25;;;1.90;;
24559;SDS011;12727;49.934;8.656;2023-05-07T05:40:22;2.15;;;1.88;;
24559;SDS011;12727;49.934;8.656;2023-05-07T05:42:48;3.05;;;1.88;;
24559;SDS011;12727;49.934;8.656;2023-05-07T05:45:13;3.90;;;2.28;;
24559;SDS011;12727;49.934;8.656;2023-05-07T05:47:39;3.95;;;2.08;;
24559;SDS011;12727;49.934;8.656;2023-05-07T05:50:06;4.05;;;2.03;;
24559;SDS011;12727;49.934;8.656;2023-05-07T05:52:32;3.55;;;2.10;;
24559;SDS011;12727;49.934;8.656;2023-05-07T05:54:58;3.50;;;2.10;;
24559;SDS011;12727;49.934;8.656;2023-05-07T05:57:23;3.03;;;2.15;;
24559;SDS011;12727;49.934;8.656;2023-05-07T05:59:49;5.20;;;2.10;;
24559;SDS011;12727;49.934;8.656;2023-05-07T06:02:14;2.47;;;1.92;;
24559;SDS011;12727;49.934;8.656;2023-05-07T06:04:40;4.43;;;1.92;;
24559;SDS011;12727;49.934;8.656;2023-05-07T06:07:07;3.10;;;2.13;;
24559;SDS011;12727;49.934;8.656;2023-05-07T06:09:33;3.67;;;2.20;;
24559;SDS011;12727;49.934;8.656;2023-05-07T06:11:58;3.50;;;2.35;;
24559;SDS011;12727;49.934;8.656;2023-05-07T06:14:24;3.30;;;2.30;;
24559;SDS011;12727;49.934;8.656;2023-05-07T06:16:49;2.65;;;2.22;;
24559;SDS011;12727;49.934;8.656;2023-05-07T06:19:15;2.70;;;2.33;;
24559;SDS011;12727;49.934;8.656;2023-05-07T06:21:43;2.60;;;2.00;;
24559;SDS011;12727;49.934;8.656;2023-05-07T06:24:08;3.03;;;2.35;;
24559;SDS011;12727;49.934;8.656;2023-05-07T06:26:34;3.42;;;2.00;;
24559;SDS011;12727;49.934;8.656;2023-05-07T06:28:59;3.95;;;2.10;;
24559;SDS011;12727;49.934;8.656;2023-05-07T06:31:28;2.95;;;2.40;;
24559;SDS011;12727;49.934;8.656;2023-05-07T06:33:56;2.95;;;2.20;;
24559;SDS011;12727;49.934;8.656;2023-05-07T06:36:21;3.80;;;2.10;;
24559;SDS011;12727;49.934;8.656;2023-05-07T06:38:47;3.63;;;2.25;;
24559;SDS011;12727;49.934;8.656;2023-05-07T06:41:12;3.72;;;2.15;;
24559;SDS011;12727;49.934;8.656;2023-05-07T06:43:38;4.28;;;2.20;;
24559;SDS011;12727;49.934;8.656;2023-05-07T06:46:04;3.40;;;2.17;;
24559;SDS011;12727;49.934;8.656;2023-05-07T06:48:30;6.95;;;2.30;;
24559;SDS011;12727;49.934;8.656;2023-05-07T06:50:55;2.47;;;2.20;;
24559;SDS011;12727;49.934;8.656;2023-05-07T06:53:22;4.15;;;2.05;;
24559;SDS011;12727;49.934;8.656;2023-05-07T06:55:48;2.78;;;2.28;;
24559;SDS011;12727;49.934;8.656;2023-05-07T06:58:14;2.67;;;1.90;;
24559;SDS011;12727;49.934;8.656;2023-05-07T07:00:39;2.70;;;1.98;;
24559;SDS011;12727;49.934;8.656;2023-05-07T07:03:05;6.43;;;2.00;;
24559;SDS011;12727;49.934;8.656;2023-05-07T07:05:31;2.72;;;2.00;;
24559;SDS011;12727;49.934;8.656;2023-05-07T07:07:57;2.45;;;1.90;;
24559;SDS011;12727;49.934;8.656;2023-05-07T07:10:23;4.97;;;2.00;;
24559;SDS011;12727;49.934;8.656;2023-05-07T07:12:48;3.17;;;2.20;;
24559;SDS011;12727;49.934;8.656;2023-05-07T07:15:15;3.20;;;2.20;;
24559;SDS011;12727;49.934;8.656;2023-05-07T07:17:41;2.63;;;2.08;;
24559;SDS011;12727;49.934;8.656;2023-05-07T07:20:07;2.60;;;1.98;;
24559;SDS011;12727;49.934;8.656;2023-05-07T07:22:33;3.60;;;2.25;;
24559;SDS011;12727;49.934;8.656;2023-05-07T07:24:58;4.20;;;2.60;;
24559;SDS011;12727;49.934;8.656;2023-05-07T07:27:24;5.20;;;2.20;;
24559;SDS011;12727;49.934;8.656;2023-05-07T07:29:49;4.00;;;2.17;;
24559;SDS011;12727;49.934;8.656;2023-05-07T07:32:15;4.13;;;2.40;;
24559;SDS011;12727;49.934;8.656;2023-05-07T07:34:40;3.80;;;2.50;;
24559;SDS011;12727;49.934;8.656;2023-05-07T07:37:06;2.60;;;2.13;;
24559;SDS011;12727;49.934;8.656;2023-05-07T07:39:32;2.90;;;2.50;;
24559;SDS011;12727;49.934;8.656;2023-05-07T07:41:58;3.75;;;2.55;;
24559;SDS011;12727;49.934;8.656;2023-05-07T07:44:24;2.38;;;2.17;;
24559;SDS011;12727;49.934;8.656;2023-05-07T07:46:50;2.65;;;2.13;;
24559;SDS011;12727;49.934;8.656;2023-05-07T07:49:15;3.40;;;2.55;;
24559;SDS011;12727;49.934;8.656;2023-05-07T07:51:41;2.75;;;2.28;;
24559;SDS011;12727;49.934;8.656;2023-05-07T07:54:07;7.40;;;2.88;;
24559;SDS011;12727;49.934;8.656;2023-05-07T07:56:32;2.42;;;2.22;;
24559;SDS011;12727;49.934;8.656;2023-05-07T07:58:58;3.10;;;2.50;;
24559;SDS011;12727;49.934;8.656;2023-05-07T08:01:24;3.30;;;2.65;;
24559;SDS011;12727;49.934;8.656;2023-05-07T08:03:50;3.40;;;2.70;;
24559;SDS011;12727;49.934;8.656;2023-05-07T08:06:16;4.13;;;2.65;;
24559;SDS011;12727;49.934;8.656;2023-05-07T08:08:42;2.97;;;2.60;;
24559;SDS011;12727;49.934;8.656;2023-05-07T08:11:07;3.95;;;2.53;;
24559;SDS011;12727;49.934;8.656;2023-05-07T08:13:33;3.78;;;2.55;;
24559;SDS011;12727;49.934;8.656;2023-05-07T08:15:59;4.57;;;2.45;;
24559;SDS011;12727;49.934;8.656;2023-05-07T08:18:25;3.20;;;2.70;;
24559;SDS011;12727;49.934;8.656;2023-05-07T08:20:51;3.10;;;2.70;;
24559;SDS011;12727;49.934;8.656;2023-05-07T08:23:16;3.58;;;3.13;;
24559;SDS011;12727;49.934;8.656;2023-05-07T08:25:42;2.70;;;2.45;;
24559;SDS011;12727;49.934;8.656;2023-05-07T08:28:07;4.85;;;2.95;;
24559;SDS011;12727;49.934;8.656;2023-05-07T08:30:33;4.95;;;2.92;;
24559;SDS011;12727;49.934;8.656;2023-05-07T08:32:59;3.80;;;3.03;;
24559;SDS011;12727;49.934;8.656;2023-05-07T08:35:25;3.45;;;2.80;;
24559;SDS011;12727;49.934;8.656;2023-05-07T08:37:51;4.32;;;2.83;;
24559;SDS011;12727;49.934;8.656;2023-05-07T08:40:17;3.28;;;2.97;;
24559;SDS011;12727;49.934;8.656;2023-05-07T08:42:43;3.40;;;2.67;;
24559;SDS011;12727;49.934;8.656;2023-05-07T08:45:09;4.85;;;2.95;;
24559;SDS011;12727;49.934;8.656;2023-05-07T08:47:50;4.20;;;2.80;;
24559;SDS011;12727;49.934;8.656;2023-05-07T08:50:19;4.10;;;2.73;;
24559;SDS011;12727;49.934;8.656;2023-05-07T08:52:45;3.20;;;2.90;;
24559;SDS011;12727;49.934;8.656;2023-05-07T08:55:11;3.28;;;2.80;;
24559;SDS011;12727;49.934;8.656;2023-05-07T08:57:38;2.95;;;2.65;;
24559;SDS011;12727;49.934;8.656;2023-05-07T09:00:04;3.13;;;2.80;;
24559;SDS011;12727;49.934;8.656;2023-05-07T09:02:32;3.30;;;2.80;;
24559;SDS011;12727;49.934;8.656;2023-05-07T09:04:58;4.25;;;2.70;;
24559;SDS011;12727;49.934;8.656;2023-05-07T09:07:23;4.57;;;2.97;;
24559;SDS011;12727;49.934;8.656;2023-05-07T09:09:49;4.65;;;3.25;;
24559;SDS011;12727;49.934;8.656;2023-05-07T09:12:17;2.90;;;2.60;;
24559;SDS011;12727;49.934;8.656;2023-05-07T09:14:43;3.95;;;2.83;;
24559;SDS011;12727;49.934;8.656;2023-05-07T09:17:10;5.43;;;2.85;;
24559;SDS011;12727;49.934;8.656;2023-05-07T09:19:36;4.47;;;2.95;;
24559;SDS011;12727;49.934;8.656;2023-05-07T09:22:02;6.20;;;3.00;;
24559;SDS011;12727;49.934;8.656;2023-05-07T09:24:29;3.25;;;2.75;;
24559;SDS011;12727;49.934;8.656;2023-05-07T09:26:58;3.67;;;3.13;;
24559;SDS011;12727;49.934;8.656;2023-05-07T09:29:26;3.50;;;3.00;;
24559;SDS011;12727;49.934;8.656;2023-05-07T09:31:53;3.65;;;2.80;;
24559;SDS011;12727;49.934;8.656;2023-05-07T09:34:19;4.07;;;2.60;;
24559;SDS011;12727;49.934;8.656;2023-05-07T09:36:45;3.25;;;2.70;;
24559;SDS011;12727;49.934;8.656;2023-05-07T09:39:11;4.18;;;2.50;;
24559;SDS011;12727;49.934;8.656;2023-05-07T09:41:44;4.13;;;2.75;;
24559;SDS011;12727;49.934;8.656;2023-05-07T09:44:14;12.13;;;10.90;;
24559;SDS011;12727;49.934;8.656;2023-05-07T09:46:42;4.05;;;3.63;;
24559;SDS011;12727;49.934;8.656;2023-05-07T09:49:10;4.60;;;3.67;;
24559;SDS011;12727;49.934;8.656;2023-05-07T09:51:45;3.15;;;2.85;;
24559;SDS011;12727;49.934;8.656;2023-05-07T09:54:15;3.85;;;2.80;;
24559;SDS011;12727;49.934;8.656;2023-05-07T09:56:42;3.22;;;2.92;;
24559;SDS011;12727;49.934;8.656;2023-05-07T09:59:13;4.97;;;3.00;;
24559;SDS011;12727;49.934;8.656;2023-05-07T10:01:42;3.95;;;3.00;;
24559;SDS011;12727;49.934;8.656;2023-05-07T10:04:08;3.78;;;2.88;;
24559;SDS011;12727;49.934;8.656;2023-05-07T10:06:37;3.42;;;3.13;;
24559;SDS011;12727;49.934;8.656;2023-05-07T10:09:03;3.28;;;2.97;;
24559;SDS011;12727;49.934;8.656;2023-05-07T10:11:31;4.35;;;3.05;;
24559;SDS011;12727;49.934;8.656;2023-05-07T10:13:58;4.15;;;2.88;;
24559;SDS011;12727;49.934;8.656;2023-05-07T10:16:26;3.33;;;3.03;;
24559;SDS011;12727;49.934;8.656;2023-05-07T10:18:56;7.72;;;2.90;;
24559;SDS011;12727;49.934;8.656;2023-05-07T10:21:23;2.58;;;2.38;;
24559;SDS011;12727;49.934;8.656;2023-05-07T10:23:53;3.72;;;2.38;;
24559;SDS011;12727;49.934;8.656;2023-05-07T10:26:31;3.00;;;2.70;;
24559;SDS011;12727;49.934;8.656;2023-05-07T10:28:59;3.85;;;2.78;;
24559;SDS011;12727;49.934;8.656;2023-05-07T10:34:32;5.45;;;3.00;;
24559;SDS011;12727;49.934;8.656;2023-05-07T10:37:02;3.88;;;3.00;;
24559;SDS011;12727;49.934;8.656;2023-05-07T10:39:29;3.60;;;2.80;;
24559;SDS011;12727;49.934;8.656;2023-05-07T10:41:55;4.32;;;3.03;;
24559;SDS011;12727;49.934;8.656;2023-05-07T10:44:27;3.85;;;2.40;;
24559;SDS011;12727;49.934;8.656;2023-05-07T10:47:07;2.65;;;2.40;;
24559;SDS011;12727;49.934;8.656;2023-05-07T10:52:12;2.95;;;2.50;;
24559;SDS011;12727;49.934;8.656;2023-05-07T10:54:43;3.10;;;2.78;;
24559;SDS011;12727;49.934;8.656;2023-05-07T11:00:01;2.72;;;2.50;;
24559;SDS011;12727;49.934;8.656;2023-05-07T11:05:24;3.60;;;3.05;;
24559;SDS011;12727;49.934;8.656;2023-05-07T11:07:54;2.28;;;2.08;;
24559;SDS011;12727;49.934;8.656;2023-05-07T11:10:21;2.50;;;2.30;;
24559;SDS011;12727;49.934;8.656;2023-05-07T11:15:14;2.38;;;2.08;;
24559;SDS011;12727;49.934;8.656;2023-05-07T11:17:53;2.63;;;2.42;;
24559;SDS011;12727;49.934;8.656;2023-05-07T11:20:20;2.53;;;2.33;;
24559;SDS011;12727;49.934;8.656;2023-05-07T11:22:46;2.75;;;2.35;;
24559;SDS011;12727;49.934;8.656;2023-05-07T11:25:19;2.20;;;1.95;;
24559;SDS011;12727;49.934;8.656;2023-05-07T11:27:44;4.03;;;2.33;;
24559;SDS011;12727;49.934;8.656;2023-05-07T11:30:14;3.10;;;2.20;;
24559;SDS011;12727;49.934;8.656;2023-05-07T11:32:43;3.63;;;2.40;;
24559;SDS011;12727;49.934;8.656;2023-05-07T11:35:11;2.40;;;1.75;;
24559;SDS011;12727;49.934;8.656;2023-05-07T11:37:38;2.00;;;1.80;;
24559;SDS011;12727;49.934;8.656;2023-05-07T11:40:05;2.40;;;1.83;;
24559;SDS011;12727;49.934;8.656;2023-05-07T11:42:33;2.72;;;2.05;;
24559;SDS011;12727;49.934;8.656;2023-05-07T11:45:01;2.30;;;1.98;;
24559;SDS011;12727;49.934;8.656;2023-05-07T11:47:29;2.80;;;2.20;;
24559;SDS011;12727;49.934;8.656;2023-05-07T11:49:55;4.05;;;2.13;;
24559;SDS011;12727;49.934;8.656;2023-05-07T11:52:22;3.47;;;2.40;;
24559;SDS011;12727;49.934;8.656;2023-05-07T11:54:52;3.63;;;2.20;;
24559;SDS011;12727;49.934;8.656;2023-05-07T11:57:23;3.35;;;2.00;;
24559;SDS011;12727;49.934;8.656;2023-05-07T11:59:53;2.78;;;1.88;;
24559;SDS011;12727;49.934;8.656;2023-05-07T12:02:19;3.22;;;1.88;;
24559;SDS011;12727;49.934;8.656;2023-05-07T12:04:45;2.47;;;2.03;;
24559;SDS011;12727;49.934;8.656;2023-05-07T12:07:11;4.93;;;2.10;;
24559;SDS011;12727;49.934;8.656;2023-05-07T12:09:38;4.25;;;2.40;;
24559;SDS011;12727;49.934;8.656;2023-05-07T12:12:04;3.20;;;2.03;;
24559;SDS011;12727;49.934;8.656;2023-05-07T12:14:30;2.70;;;2.13;;
24559;SDS011;12727;49.934;8.656;2023-05-07T12:16:57;4.60;;;1.90;;
24559;SDS011;12727;49.934;8.656;2023-05-07T12:19:30;3.53;;;2.03;;
24559;SDS011;12727;49.934;8.656;2023-05-07T12:21:56;2.67;;;2.10;;
24559;SDS011;12727;49.934;8.656;2023-05-07T12:24:22;2.45;;;2.13;;
24559;SDS011;12727;49.934;8.656;2023-05-07T12:26:48;3.42;;;2.10;;
24559;SDS011;12727;49.934;8.656;2023-05-07T12:29:13;3.13;;;1.77;;
24559;SDS011;12727;49.934;8.656;2023-05-07T12:31:42;3.95;;;1.73;;
24559;SDS011;12727;49.934;8.656;2023-05-07T12:34:10;1.88;;;1.77;;
24559;SDS011;12727;49.934;8.656;2023-05-07T12:36:37;2.15;;;1.90;;
24559;SDS011;12727;49.934;8.656;2023-05-07T12:39:04;3.85;;;1.90;;
24559;SDS011;12727;49.934;8.656;2023-05-07T12:41:30;2.35;;;1.80;;
24559;SDS011;12727;49.934;8.656;2023-05-07T12:44:24;3.03;;;1.75;;
24559;SDS011;12727;49.934;8.656;2023-05-07T12:46:56;1.65;;;1.55;;
24559;SDS011;12727;49.934;8.656;2023-05-07T12:49:22;2.65;;;1.73;;
24559;SDS011;12727;49.934;8.656;2023-05-07T12:51:48;2.50;;;1.65;;
24559;SDS011;12727;49.934;8.656;2023-05-07T12:57:06;2.85;;;1.67;;
24559;SDS011;12727;49.934;8.656;2023-05-07T12:59:34;2.58;;;1.40;;
24559;SDS011;12727;49.934;8.656;2023-05-07T13:02:04;2.00;;;1.65;;
24559;SDS011;12727;49.934;8.656;2023-05-07T13:04:30;2.40;;;1.90;;
24559;SDS011;12727;49.934;8.656;2023-05-07T13:06:56;3.50;;;1.58;;
24559;SDS011;12727;49.934;8.656;2023-05-07T13:09:21;1.50;;;1.27;;
24559;SDS011;12727;49.934;8.656;2023-05-07T13:11:47;3.55;;;1.40;;
24559;SDS011;12727;49.934;8.656;2023-05-07T13:14:12;1.90;;;1.58;;
24559;SDS011;12727;49.934;8.656;2023-05-07T13:16:38;3.03;;;1.42;;
24559;SDS011;12727;49.934;8.656;2023-05-07T13:19:03;1.70;;;1.60;;
24559;SDS011;12727;49.934;8.656;2023-05-07T13:21:29;3.67;;;1.80;;
24559;SDS011;12727;49.934;8.656;2023-05-07T13:23:57;3.28;;;1.50;;
24559;SDS011;12727;49.934;8.656;2023-05-07T13:26:23;2.72;;;1.55;;
24559;SDS011;12727;49.934;8.656;2023-05-07T13:28:48;2.45;;;1.70;;
24559;SDS011;12727;49.934;8.656;2023-05-07T13:31:14;4.80;;;1.83;;
24559;SDS011;12727;49.934;8.656;2023-05-07T13:33:40;1.92;;;1.65;;
24559;SDS011;12727;49.934;8.656;2023-05-07T13:36:05;2.65;;;1.67;;
24559;SDS011;12727;49.934;8.656;2023-05-07T13:38:31;3.50;;;1.67;;
24559;SDS011;12727;49.934;8.656;2023-05-07T13:40:56;1.60;;;1.50;;
24559;SDS011;12727;49.934;8.656;2023-05-07T13:43:22;1.65;;;1.30;;
24559;SDS011;12727;49.934;8.656;2023-05-07T13:45:49;2.55;;;1.60;;
24559;SDS011;12727;49.934;8.656;2023-05-07T13:48:15;2.10;;;1.42;;
24559;SDS011;12727;49.934;8.656;2023-05-07T13:50:40;1.40;;;1.27;;
24559;SDS011;12727;49.934;8.656;2023-05-07T13:53:07;3.00;;;1.27;;
24559;SDS011;12727;49.934;8.656;2023-05-07T13:55:32;1.80;;;1.20;;
24559;SDS011;12727;49.934;8.656;2023-05-07T13:57:58;3.90;;;1.20;;
24559;SDS011;12727;49.934;8.656;2023-05-07T14:00:26;1.63;;;1.10;;
24559;SDS011;12727;49.934;8.656;2023-05-07T14:02:52;0.85;;;0.80;;
24559;SDS011;12727;49.934;8.656;2023-05-07T14:05:18;4.15;;;1.20;;
24559;SDS011;12727;49.934;8.656;2023-05-07T14:07:44;1.35;;;0.70;;
24559;SDS011;12727;49.934;8.656;2023-05-07T14:10:10;2.55;;;1.77;;
24559;SDS011;12727;49.934;8.656;2023-05-07T14:12:36;1.98;;;1.05;;
24559;SDS011;12727;49.934;8.656;2023-05-07T14:15:02;1.88;;;0.93;;
24559;SDS011;12727;49.934;8.656;2023-05-07T14:17:28;2.05;;;1.05;;
24559;SDS011;12727;49.934;8.656;2023-05-07T14:19:54;1.85;;;1.23;;
24559;SDS011;12727;49.934;8.656;2023-05-07T14:22:20;1.38;;;1.17;;
24559;SDS011;12727;49.934;8.656;2023-05-07T14:24:47;2.35;;;1.20;;
24559;SDS011;12727;49.934;8.656;2023-05-07T14:27:13;2.95;;;1.15;;
24559;SDS011;12727;49.934;8.656;2023-05-07T14:29:39;1.63;;;1.13;;
24559;SDS011;12727;49.934;8.656;2023-05-07T14:32:04;2.38;;;1.17;;
24559;SDS011;12727;49.934;8.656;2023-05-07T14:34:30;1.83;;;1.42;;
24559;SDS011;12727;49.934;8.656;2023-05-07T14:36:56;2.10;;;1.30;;
24559;SDS011;12727;49.934;8.656;2023-05-07T14:39:22;2.38;;;1.35;;
24559;SDS011;12727;49.934;8.656;2023-05-07T14:41:47;2.13;;;1.20;;
24559;SDS011;12727;49.934;8.656;2023-05-07T14:44:13;1.73;;;1.00;;
24559;SDS011;12727;49.934;8.656;2023-05-07T14:46:38;1.20;;;1.10;;
24559;SDS011;12727;49.934;8.656;2023-05-07T14:49:04;2.45;;;1.10;;
24559;SDS011;12727;49.934;8.656;2023-05-07T14:51:30;2.40;;;1.00;;
24559;SDS011;12727;49.934;8.656;2023-05-07T14:53:56;2.72;;;1.23;;
24559;SDS011;12727;49.934;8.656;2023-05-07T14:56:21;1.65;;;1.10;;
24559;SDS011;12727;49.934;8.656;2023-05-07T14:58:47;1.95;;;1.05;;
24559;SDS011;12727;49.934;8.656;2023-05-07T15:01:14;6.40;;;1.48;;